createdAt,value
2022-10-17T00:00:57.009Z,100698.81
2022-10-17T00:01:58.447Z,100698.19
2022-10-17T00:02:59.895Z,100703.63
2022-10-17T00:04:01.369Z,100700.63
2022-10-17T00:05:02.830Z,100700.63
2022-10-17T00:06:07.695Z,100703.78
2022-10-17T00:07:09.127Z,100706.06
2022-10-17T00:08:10.747Z,100702.72
2022-10-17T00:09:12.607Z,100703.56
2022-10-17T00:10:14.128Z,100709.25
2022-10-17T00:11:19.538Z,100711.63
2022-10-17T00:12:20.994Z,100701.78
2022-10-17T00:13:22.436Z,100703.47
2022-10-17T00:14:23.926Z,100701.56
2022-10-17T00:15:25.400Z,100704.97
2022-10-17T00:16:28.063Z,100703.59
2022-10-17T00:17:30.126Z,100694.03
2022-10-17T00:18:31.804Z,100704.47
2022-10-17T00:19:33.391Z,100699.75
2022-10-17T00:20:35.452Z,100691.84
2022-10-17T00:21:36.927Z,100710.97
2022-10-17T00:22:38.378Z,100700.59
2022-10-17T00:23:39.875Z,100697.69
2022-10-17T00:24:41.347Z,100692.63
2022-10-17T00:25:42.775Z,100703.81
2022-10-17T00:26:44.279Z,100690.28
2022-10-17T00:27:45.762Z,100705.50
2022-10-17T00:28:49.569Z,100701.31
2022-10-17T00:29:51.275Z,100694.81
2022-10-17T00:30:59.066Z,100701.00
2022-10-17T00:32:00.580Z,100710.69
2022-10-17T00:33:02.028Z,100698.56
2022-10-17T00:34:03.642Z,100701.31
2022-10-17T00:35:05.129Z,100694.75
2022-10-17T00:36:07.764Z,100703.47
2022-10-17T00:37:09.995Z,100707.25
2022-10-17T00:38:11.430Z,100706.09
2022-10-17T00:39:13.679Z,100700.69
2022-10-17T00:40:15.158Z,100707.19
2022-10-17T00:41:17.846Z,100709.47
2022-10-17T00:42:19.379Z,100712.59
2022-10-17T00:43:20.847Z,100712.41
2022-10-17T00:44:31.291Z,100707.31
2022-10-17T00:45:32.831Z,100710.38
2022-10-17T00:46:35.076Z,100709.59
2022-10-17T00:47:36.599Z,100707.91
2022-10-17T00:48:38.130Z,100706.25
2022-10-17T00:49:39.666Z,100718.06
2022-10-17T00:50:41.634Z,100712.19
2022-10-17T00:51:43.965Z,100722.09
2022-10-17T00:52:45.497Z,100715.63
2022-10-17T00:53:46.940Z,100713.34
2022-10-17T00:54:49.355Z,100718.13
2022-10-17T00:55:51.439Z,100722.94
2022-10-17T00:56:52.910Z,100719.81
2022-10-17T00:57:54.418Z,100716.91
2022-10-17T00:58:55.957Z,100716.38
2022-10-17T00:59:57.431Z,100720.34
2022-10-17T01:00:58.894Z,100715.25
2022-10-17T01:02:00.908Z,100724.22
2022-10-17T01:03:02.379Z,100720.88
2022-10-17T01:04:03.870Z,100718.59
2022-10-17T01:05:06.210Z,100723.47
2022-10-17T01:06:09.436Z,100718.69
2022-10-17T01:07:11.003Z,100716.47
2022-10-17T01:08:12.462Z,100722.16
2022-10-17T01:09:13.910Z,100719.66
2022-10-17T01:10:15.419Z,100715.69
2022-10-17T01:11:20.654Z,100720.19
2022-10-17T01:12:23.344Z,100707.00
2022-10-17T01:13:51.330Z,100706.16
2022-10-17T01:14:55.942Z,100716.47
2022-10-17T01:16:00.609Z,100717.66
2022-10-17T01:17:06.614Z,100718.94
2022-10-17T01:18:26.242Z,100717.75
2022-10-17T01:19:44.730Z,100729.56
2022-10-17T01:20:51.802Z,100720.47
2022-10-17T01:21:58.367Z,100721.00
2022-10-17T01:23:02.803Z,100726.13
2022-10-17T01:24:16.286Z,100730.03
2022-10-17T01:25:21.017Z,100724.97
2022-10-17T01:26:41.658Z,100720.75
2022-10-17T01:27:49.535Z,100725.53
2022-10-17T01:29:04.163Z,100733.44
2022-10-17T01:30:17.455Z,100729.56
2022-10-17T01:31:34.022Z,100721.75
2022-10-17T01:32:56.340Z,100729.69
2022-10-17T01:34:02.647Z,100704.41
2022-10-17T01:35:07.286Z,100724.34
2022-10-17T01:36:10.352Z,100725.88
2022-10-17T01:37:30.666Z,100728.97
2022-10-17T01:38:33.823Z,100716.84
2022-10-17T01:39:45.667Z,100721.94
2022-10-17T01:40:51.157Z,100725.59
2022-10-17T01:42:11.543Z,100717.84
2022-10-17T01:43:12.976Z,100717.56
2022-10-17T01:44:14.692Z,100724.88
2022-10-17T01:45:17.027Z,100724.88
2022-10-17T01:46:33.990Z,100717.25
2022-10-17T01:47:35.492Z,100716.16
2022-10-17T01:48:37.457Z,100715.28
2022-10-17T01:49:39.193Z,100720.94
2022-10-17T01:50:44.701Z,100720.34
2022-10-17T01:51:49.960Z,100725.06
2022-10-17T01:52:55.786Z,100724.25
2022-10-17T01:53:59.371Z,100723.69
2022-10-17T01:55:04.725Z,100728.97
2022-10-17T01:56:06.973Z,100725.88
2022-10-17T01:57:09.662Z,100718.78
2022-10-17T01:58:15.102Z,100727.16
2022-10-17T01:59:45.542Z,100717.03
2022-10-17T02:00:47.040Z,100726.56
2022-10-17T02:01:49.526Z,100718.88
2022-10-17T02:02:52.322Z,100723.91
2022-10-17T02:03:53.794Z,100718.28
2022-10-17T02:04:56.089Z,100728.00
2022-10-17T02:05:57.546Z,100715.88
2022-10-17T02:07:05.886Z,100722.13
2022-10-17T02:08:07.453Z,100712.88
2022-10-17T02:09:25.359Z,100719.75
2022-10-17T02:10:36.550Z,100721.41
2022-10-17T02:11:38.063Z,100723.09
2022-10-17T02:12:53.987Z,100721.41
2022-10-17T02:14:01.096Z,100721.41
2022-10-17T02:15:22.597Z,100718.41
2022-10-17T02:16:29.475Z,100720.69
2022-10-17T02:17:43.343Z,100717.34
2022-10-17T02:18:52.542Z,100719.97
2022-10-17T02:19:56.564Z,100714.09
2022-10-17T02:21:00.957Z,100719.97
2022-10-17T02:22:20.906Z,100718.28
2022-10-17T02:23:34.332Z,100722.47
2022-10-17T02:24:38.847Z,100720.47
2022-10-17T02:25:47.347Z,100709.13
2022-10-17T02:26:53.706Z,100714.81
2022-10-17T02:28:30.209Z,100713.06
2022-10-17T02:29:36.780Z,100713.16
2022-10-17T02:30:49.982Z,100715.97
2022-10-17T02:33:39.580Z,100722.97
2022-10-17T02:34:41.963Z,100715.09
2022-10-17T02:35:44.655Z,100717.94
2022-10-17T02:36:48.984Z,100718.47
2022-10-17T02:37:50.529Z,100720.78
2022-10-17T02:38:51.986Z,100723.88
2022-10-17T02:39:54.180Z,100728.59
2022-10-17T02:40:55.651Z,100717.31
2022-10-17T02:41:57.999Z,100728.00
2022-10-17T02:42:59.985Z,100734.22
2022-10-17T02:44:03.202Z,100731.19
2022-10-17T02:45:04.880Z,100723.88
2022-10-17T02:46:07.046Z,100726.22
2022-10-17T02:47:20.563Z,100732.63
2022-10-17T02:48:30.911Z,100730.91
2022-10-17T02:49:34.126Z,100732.06
2022-10-17T02:50:38.267Z,100736.03
2022-10-17T02:51:44.059Z,100733.22
2022-10-17T02:52:46.395Z,100728.97
2022-10-17T02:53:51.027Z,100735.50
2022-10-17T02:54:54.465Z,100730.16
2022-10-17T02:55:57.061Z,100727.59
2022-10-17T02:56:59.755Z,100739.34
2022-10-17T02:58:03.610Z,100734.84
2022-10-17T02:59:05.079Z,100732.56
2022-10-17T03:00:07.580Z,100742.16
2022-10-17T03:01:09.143Z,100736.50
2022-10-17T03:02:10.960Z,100737.06
2022-10-17T03:03:25.705Z,100743.81
2022-10-17T03:04:27.246Z,100739.88
2022-10-17T03:05:29.263Z,100738.44
2022-10-17T03:06:30.715Z,100737.84
2022-10-17T03:07:32.301Z,100734.97
2022-10-17T03:08:35.464Z,100735.31
2022-10-17T03:09:37.161Z,100738.69
2022-10-17T03:10:39.117Z,100734.78
2022-10-17T03:11:40.870Z,100738.44
2022-10-17T03:12:43.363Z,100737.84
2022-10-17T03:13:45.355Z,100737.56
2022-10-17T03:14:46.815Z,100742.66
2022-10-17T03:15:48.285Z,100743.72
2022-10-17T03:16:49.859Z,100744.03
2022-10-17T03:17:52.764Z,100740.38
2022-10-17T03:18:54.373Z,100734.13
2022-10-17T03:19:55.935Z,100745.41
2022-10-17T03:20:57.423Z,100749.34
2022-10-17T03:21:58.999Z,100749.34
2022-10-17T03:23:00.444Z,100756.69
2022-10-17T03:24:02.633Z,100749.13
2022-10-17T03:25:04.207Z,100745.41
2022-10-17T03:26:06.114Z,100751.63
2022-10-17T03:27:08.791Z,100746.00
2022-10-17T03:28:12.411Z,100752.47
2022-10-17T03:29:14.343Z,100748.81
2022-10-17T03:30:15.879Z,100752.47
2022-10-17T03:31:17.830Z,100755.00
2022-10-17T03:32:20.678Z,100757.31
2022-10-17T03:33:22.736Z,100759.88
2022-10-17T03:34:24.478Z,100760.50
2022-10-17T03:35:26.428Z,100762.47
2022-10-17T03:36:28.295Z,100760.78
2022-10-17T03:37:30.488Z,100763.56
2022-10-17T03:38:34.044Z,100758.22
2022-10-17T03:39:35.510Z,100761.88
2022-10-17T03:40:37.028Z,100770.84
2022-10-17T03:41:38.860Z,100763.00
2022-10-17T03:42:40.486Z,100760.72
2022-10-17T03:43:42.275Z,100770.25
2022-10-17T03:44:43.823Z,100759.56
2022-10-17T03:45:45.300Z,100762.91
2022-10-17T03:46:46.802Z,100766.88
2022-10-17T03:47:48.301Z,100771.66
2022-10-17T03:48:50.189Z,100781.50
2022-10-17T03:49:53.531Z,100769.63
2022-10-17T03:50:59.177Z,100777.19
2022-10-17T03:52:00.734Z,100781.94
2022-10-17T03:53:02.684Z,100777.13
2022-10-17T03:54:04.308Z,100779.34
2022-10-17T03:55:05.914Z,100771.44
2022-10-17T03:56:11.020Z,100776.72
2022-10-17T03:57:13.024Z,100785.97
2022-10-17T03:58:14.519Z,100776.63
2022-10-17T03:59:16.221Z,100782.50
2022-10-17T04:00:24.075Z,100779.06
2022-10-17T04:01:31.213Z,100783.78
2022-10-17T04:02:32.762Z,100782.38
2022-10-17T04:03:34.375Z,100778.13
2022-10-17T04:04:35.855Z,100781.53
2022-10-17T04:05:37.955Z,100777.00
2022-10-17T04:06:39.521Z,100790.03
2022-10-17T04:07:41.311Z,100786.69
2022-10-17T04:08:43.046Z,100787.28
2022-10-17T04:09:51.353Z,100786.19
2022-10-17T04:10:59.759Z,100788.53
2022-10-17T04:12:01.274Z,100788.00
2022-10-17T04:13:02.924Z,100786.56
2022-10-17T04:14:04.998Z,100793.03
2022-10-17T04:15:06.933Z,100788.47
2022-10-17T04:16:10.214Z,100787.41
2022-10-17T04:17:16.115Z,100787.09
2022-10-17T04:18:17.554Z,100786.50
2022-10-17T04:19:19.086Z,100784.78
2022-10-17T04:20:22.220Z,100776.84
2022-10-17T04:21:24.670Z,100786.69
2022-10-17T04:22:26.975Z,100786.69
2022-10-17T04:23:28.726Z,100785.25
2022-10-17T04:24:35.815Z,100786.91
2022-10-17T04:25:43.623Z,100786.63
2022-10-17T04:26:45.148Z,100788.28
2022-10-17T04:27:49.034Z,100784.38
2022-10-17T04:28:50.830Z,100771.97
2022-10-17T04:29:52.296Z,100787.72
2022-10-17T04:31:02.955Z,100782.63
2022-10-17T04:32:10.115Z,100783.16
2022-10-17T04:33:29.300Z,100785.13
2022-10-17T04:34:30.793Z,100789.41
2022-10-17T04:35:32.392Z,100782.09
2022-10-17T04:36:37.666Z,100780.09
2022-10-17T04:37:39.149Z,100785.13
2022-10-17T04:38:47.104Z,100785.66
2022-10-17T04:39:48.615Z,100787.03
2022-10-17T04:40:50.095Z,100778.66
2022-10-17T04:41:51.555Z,100792.16
2022-10-17T04:42:53.112Z,100782.53
2022-10-17T04:43:58.093Z,100787.88
2022-10-17T04:45:00.862Z,100782.78
2022-10-17T04:46:03.195Z,100782.50
2022-10-17T04:47:04.713Z,100782.50
2022-10-17T04:48:06.260Z,100784.16
2022-10-17T04:49:08.757Z,100785.84
2022-10-17T04:50:11.260Z,100796.00
2022-10-17T04:51:15.231Z,100792.03
2022-10-17T04:52:34.706Z,100787.53
2022-10-17T04:53:37.312Z,100787.53
2022-10-17T04:54:39.059Z,100784.69
2022-10-17T04:55:43.528Z,100787.53
2022-10-17T04:56:45.112Z,100794.84
2022-10-17T04:57:46.619Z,100790.03
2022-10-17T04:58:54.379Z,100794.00
2022-10-17T04:59:56.659Z,100794.00
2022-10-17T05:01:30.269Z,100792.31
2022-10-17T05:02:32.629Z,100785.84
2022-10-17T05:03:36.406Z,100793.47
2022-10-17T05:04:37.871Z,100797.13
2022-10-17T05:05:40.067Z,100789.81
2022-10-17T05:06:41.620Z,100792.09
2022-10-17T05:08:01.291Z,100789.56
2022-10-17T05:09:06.140Z,100805.63
2022-10-17T05:10:08.062Z,100783.53
2022-10-17T05:11:19.742Z,100805.94
2022-10-17T05:12:21.734Z,100806.25
2022-10-17T05:13:23.282Z,100800.59
2022-10-17T05:14:24.758Z,100799.75
2022-10-17T05:15:26.219Z,100806.56
2022-10-17T05:16:29.414Z,100808.53
2022-10-17T05:17:30.875Z,100818.13
2022-10-17T05:18:32.399Z,100816.47
2022-10-17T05:19:33.881Z,100809.97
2022-10-17T05:20:35.571Z,100809.13
2022-10-17T05:21:37.473Z,100815.38
2022-10-17T05:22:42.050Z,100811.44
2022-10-17T05:23:45.031Z,100809.75
2022-10-17T05:24:46.515Z,100810.03
2022-10-17T05:25:48.352Z,100811.16
2022-10-17T05:26:50.267Z,100815.13
2022-10-17T05:27:52.222Z,100807.88
2022-10-17T05:28:54.728Z,100813.81
2022-10-17T05:29:57.839Z,100816.63
2022-10-17T05:31:05.726Z,100812.38
2022-10-17T05:32:07.198Z,100810.47
2022-10-17T05:33:09.662Z,100807.16
2022-10-17T05:34:13.188Z,100808.88
2022-10-17T05:35:16.121Z,100808.63
2022-10-17T05:36:17.651Z,100817.13
2022-10-17T05:37:19.208Z,100806.69
2022-10-17T05:38:24.859Z,100807.53
2022-10-17T05:39:26.352Z,100816.84
2022-10-17T05:40:27.827Z,100813.41
2022-10-17T05:41:29.620Z,100804.66
2022-10-17T05:42:31.804Z,100822.72
2022-10-17T05:43:33.737Z,100817.91
2022-10-17T05:44:35.739Z,100819.34
2022-10-17T05:45:37.669Z,100817.97
2022-10-17T05:46:39.951Z,100812.66
2022-10-17T05:47:41.605Z,100823.91
2022-10-17T05:48:43.770Z,100821.63
2022-10-17T05:49:50.048Z,100821.34
2022-10-17T05:51:02.436Z,100815.09
2022-10-17T05:52:04.652Z,100818.53
2022-10-17T05:53:11.683Z,100814.63
2022-10-17T05:54:19.213Z,100823.13
2022-10-17T05:55:20.711Z,100822.28
2022-10-17T05:56:22.235Z,100819.19
2022-10-17T05:57:26.453Z,100819.19
2022-10-17T06:00:01.045Z,100811.66
2022-10-17T06:01:06.213Z,100826.59
2022-10-17T06:02:10.312Z,100819.56
2022-10-17T06:03:11.830Z,100824.91
2022-10-17T06:04:13.375Z,100818.75
2022-10-17T06:05:15.370Z,100825.22
2022-10-17T06:06:17.336Z,100824.63
2022-10-17T06:07:19.960Z,100835.06
2022-10-17T06:08:22.634Z,100835.06
2022-10-17T06:09:24.807Z,100834.59
2022-10-17T06:10:28.658Z,100833.47
2022-10-17T06:11:30.443Z,100839.44
2022-10-17T06:12:32.179Z,100840.28
2022-10-17T06:13:34.034Z,100836.91
2022-10-17T06:14:39.539Z,100839.19
2022-10-17T06:15:41.979Z,100841.72
2022-10-17T06:16:43.860Z,100843.94
2022-10-17T06:17:45.422Z,100840.88
2022-10-17T06:18:46.901Z,100834.13
2022-10-17T06:19:48.390Z,100839.44
2022-10-17T06:20:50.470Z,100853.75
2022-10-17T06:21:53.423Z,100847.25
2022-10-17T06:22:57.033Z,100857.13
2022-10-17T06:24:30.658Z,100851.50
2022-10-17T06:25:32.594Z,100851.47
2022-10-17T06:26:34.223Z,100849.50
2022-10-17T06:27:35.741Z,100859.94
2022-10-17T06:28:37.439Z,100864.50
2022-10-17T06:29:39.313Z,100857.41
2022-10-17T06:30:41.335Z,100863.06
2022-10-17T06:31:42.798Z,100862.50
2022-10-17T06:32:44.893Z,100867.25
2022-10-17T06:33:46.934Z,100873.97
2022-10-17T06:34:48.414Z,100868.06
2022-10-17T06:35:53.985Z,100877.31
2022-10-17T06:38:04.428Z,100878.63
2022-10-17T06:39:07.006Z,100874.59
2022-10-17T06:40:15.126Z,100868.03
2022-10-17T06:41:18.566Z,100877.00
2022-10-17T06:42:20.034Z,100874.66
2022-10-17T06:43:47.579Z,100879.59
2022-10-17T06:45:18.296Z,100882.38
2022-10-17T06:46:29.831Z,100881.47
2022-10-17T06:47:36.693Z,100881.41
2022-10-17T06:48:48.175Z,100880.50
2022-10-17T06:50:08.274Z,100878.44
2022-10-17T06:51:16.795Z,100883.72
2022-10-17T06:52:23.218Z,100885.09
2022-10-17T06:53:53.579Z,100889.16
2022-10-17T06:55:24.032Z,100883.38
2022-10-17T06:57:03.795Z,100896.75
2022-10-17T06:58:20.299Z,100892.03
2022-10-17T06:59:43.322Z,100888.41
2022-10-17T07:00:50.081Z,100886.56
2022-10-17T07:01:52.430Z,100897.72
2022-10-17T07:02:53.990Z,100889.19
2022-10-17T07:03:55.793Z,100887.31
2022-10-17T07:04:57.716Z,100890.28
2022-10-17T07:05:59.283Z,100883.63
2022-10-17T07:07:03.126Z,100882.06
2022-10-17T07:08:05.795Z,100885.72
2022-10-17T07:09:07.499Z,100877.81
2022-10-17T07:10:11.364Z,100883.47
2022-10-17T07:11:15.502Z,100873.50
2022-10-17T07:12:17.018Z,100886.91
2022-10-17T07:13:20.031Z,100889.69
2022-10-17T07:14:21.522Z,100885.16
2022-10-17T07:15:23.332Z,100883.28
2022-10-17T07:16:25.436Z,100885.81
2022-10-17T07:17:35.491Z,100887.72
2022-10-17T07:18:37.007Z,100889.06
2022-10-17T07:19:38.475Z,100881.72
2022-10-17T07:20:42.604Z,100887.88
2022-10-17T07:21:44.129Z,100893.59
2022-10-17T07:22:46.574Z,100887.50
2022-10-17T07:23:48.163Z,100889.19
2022-10-17T07:26:09.878Z,100890.59
2022-10-17T07:27:13.068Z,100888.41
2022-10-17T07:28:14.971Z,100894.91
2022-10-17T07:29:16.584Z,100894.91
2022-10-17T07:30:22.872Z,100893.53
2022-10-17T07:31:32.147Z,100902.44
2022-10-17T07:32:33.621Z,100897.72
2022-10-17T07:33:35.193Z,100900.25
2022-10-17T07:34:36.770Z,100902.44
2022-10-17T07:35:40.929Z,100904.88
2022-10-17T07:36:42.657Z,100902.44
2022-10-17T07:37:44.111Z,100910.75
2022-10-17T07:38:45.668Z,100905.41
2022-10-17T07:39:47.356Z,100908.66
2022-10-17T07:40:53.683Z,100918.84
2022-10-17T07:41:55.358Z,100919.22
2022-10-17T07:42:58.141Z,100914.59
2022-10-17T07:44:00.683Z,100922.38
2022-10-17T07:45:08.012Z,100918.19
2022-10-17T07:46:11.423Z,100925.13
2022-10-17T07:47:13.531Z,100919.97
2022-10-17T07:48:15.023Z,100911.78
2022-10-17T07:49:16.517Z,100918.16
2022-10-17T07:50:19.729Z,100924.34
2022-10-17T07:51:21.996Z,100921.81
2022-10-17T07:52:23.432Z,100922.16
2022-10-17T07:53:24.956Z,100921.47
2022-10-17T07:54:26.373Z,100918.72
2022-10-17T07:55:27.843Z,100924.59
2022-10-17T07:56:29.692Z,100915.50
2022-10-17T07:57:31.175Z,100917.78
2022-10-17T07:58:32.657Z,100922.63
2022-10-17T07:59:34.508Z,100907.34
2022-10-17T08:00:36.754Z,100918.91
2022-10-17T08:01:38.308Z,100920.81
2022-10-17T08:02:39.840Z,100910.41
2022-10-17T08:03:42.845Z,100906.31
2022-10-17T08:04:44.274Z,100912.97
2022-10-17T08:05:45.760Z,100909.19
2022-10-17T08:06:47.232Z,100912.38
2022-10-17T08:07:48.736Z,100916.28
2022-10-17T08:08:50.187Z,100905.97
2022-10-17T08:09:51.674Z,100911.50
2022-10-17T08:10:54.245Z,100902.88
2022-10-17T08:11:55.723Z,100910.47
2022-10-17T08:12:57.315Z,100904.50
2022-10-17T08:13:58.818Z,100914.00
2022-10-17T08:15:00.825Z,100912.00
2022-10-17T08:16:02.573Z,100913.84
2022-10-17T08:17:04.475Z,100919.41
2022-10-17T08:18:05.915Z,100917.22
2022-10-17T08:20:15.411Z,100913.69
2022-10-17T08:21:16.874Z,100921.38
2022-10-17T08:22:18.290Z,100922.06
2022-10-17T08:23:19.793Z,100919.91
2022-10-17T08:24:21.389Z,100916.06
2022-10-17T08:25:22.922Z,100920.22
2022-10-17T08:26:24.421Z,100920.84
2022-10-17T08:27:27.729Z,100920.03
2022-10-17T08:28:29.278Z,100922.56
2022-10-17T08:29:32.793Z,100930.28
2022-10-17T08:30:34.256Z,100927.22
2022-10-17T08:31:35.689Z,100934.75
2022-10-17T08:32:37.170Z,100927.03
2022-10-17T08:33:38.652Z,100936.06
2022-10-17T08:34:40.109Z,100922.69
2022-10-17T08:35:41.647Z,100929.03
2022-10-17T08:36:43.062Z,100929.16
2022-10-17T08:37:44.484Z,100916.97
2022-10-17T08:38:48.009Z,100921.84
2022-10-17T08:39:53.208Z,100924.06
2022-10-17T08:40:55.865Z,100927.78
2022-10-17T08:42:00.171Z,100928.59
2022-10-17T08:43:04.670Z,100928.13
2022-10-17T08:44:06.092Z,100923.47
2022-10-17T08:45:10.445Z,100924.16
2022-10-17T08:46:11.979Z,100921.44
2022-10-17T08:47:14.606Z,100923.31
2022-10-17T08:48:18.008Z,100917.78
2022-10-17T08:49:21.947Z,100925.50
2022-10-17T08:50:37.165Z,100933.00
2022-10-17T08:51:40.366Z,100923.97
2022-10-17T08:52:43.756Z,100919.31
2022-10-17T08:53:48.051Z,100927.19
2022-10-17T08:54:49.768Z,100926.31
2022-10-17T08:55:51.780Z,100920.94
2022-10-17T08:56:53.478Z,100924.94
2022-10-17T08:57:54.923Z,100923.66
2022-10-17T08:58:56.409Z,100927.16
2022-10-17T08:59:57.961Z,100921.59
2022-10-17T09:01:11.901Z,100908.72
2022-10-17T09:02:33.075Z,100913.88
2022-10-17T09:03:38.604Z,100924.97
2022-10-17T09:04:43.022Z,100923.28
2022-10-17T09:05:52.094Z,100932.47
2022-10-17T09:06:59.307Z,100931.63
2022-10-17T09:08:19.531Z,100926.97
2022-10-17T09:09:28.258Z,100925.50
2022-10-17T09:10:32.564Z,100916.44
2022-10-17T09:11:34.047Z,100933.19
2022-10-17T09:12:38.366Z,100927.50
2022-10-17T09:13:58.317Z,100923.66
2022-10-17T09:14:59.766Z,100923.47
2022-10-17T09:16:05.284Z,100920.47
2022-10-17T09:17:25.312Z,100924.16
2022-10-17T09:18:31.767Z,100933.03
2022-10-17T09:19:37.292Z,100933.97
2022-10-17T09:20:47.044Z,100922.28
2022-10-17T09:21:58.771Z,100933.34
2022-10-17T09:23:00.330Z,100934.84
2022-10-17T09:24:09.618Z,100939.84
2022-10-17T09:25:12.595Z,100931.84
2022-10-17T09:26:14.136Z,100937.16
2022-10-17T09:27:23.807Z,100928.72
2022-10-17T09:28:27.026Z,100933.34
2022-10-17T09:29:34.297Z,100931.09
2022-10-17T09:30:46.167Z,100931.28
2022-10-17T09:32:06.723Z,100934.97
2022-10-17T09:33:23.082Z,100932.00
2022-10-17T09:34:33.523Z,100924.47
2022-10-17T09:35:35.215Z,100926.44
2022-10-17T09:36:37.922Z,100921.19
2022-10-17T09:37:39.412Z,100922.44
2022-10-17T09:38:41.825Z,100924.53
2022-10-17T09:39:43.631Z,100923.53
2022-10-17T09:40:45.428Z,100922.09
2022-10-17T09:41:50.670Z,100925.50
2022-10-17T09:42:52.896Z,100930.84
2022-10-17T09:43:57.161Z,100920.88
2022-10-17T09:45:05.450Z,100930.59
2022-10-17T09:46:06.937Z,100923.66
2022-10-17T09:47:27.376Z,100915.63
2022-10-17T09:48:34.654Z,100927.66
2022-10-17T09:49:37.043Z,100927.88
2022-10-17T09:50:38.511Z,100931.22
2022-10-17T09:51:40.429Z,100929.38
2022-10-17T09:52:42.609Z,100921.31
2022-10-17T09:53:48.394Z,100931.38
2022-10-17T09:54:55.834Z,100927.31
2022-10-17T09:55:57.903Z,100927.78
2022-10-17T09:57:03.174Z,100928.16
2022-10-17T09:58:05.334Z,100929.34
2022-10-17T09:59:09.312Z,100924.09
2022-10-17T10:00:20.237Z,100924.69
2022-10-17T10:01:28.917Z,100926.59
2022-10-17T10:02:31.053Z,100928.34
2022-10-17T10:03:32.929Z,100919.81
2022-10-17T10:04:46.939Z,100930.66
2022-10-17T10:06:02.018Z,100930.03
2022-10-17T10:07:04.494Z,100926.34
2022-10-17T10:08:06.784Z,100915.53
2022-10-17T10:10:27.803Z,100927.84
2022-10-17T10:11:48.772Z,100931.19
2022-10-17T10:13:06.833Z,100930.69
2022-10-17T10:14:11.446Z,100932.47
2022-10-17T10:15:35.400Z,100933.56
2022-10-17T10:16:41.136Z,100932.56
2022-10-17T10:17:42.742Z,100931.63
2022-10-17T10:18:45.474Z,100941.16
2022-10-17T10:19:51.878Z,100951.72
2022-10-17T10:21:04.353Z,100936.38
2022-10-17T10:22:06.522Z,100939.69
2022-10-17T10:23:11.370Z,100937.59
2022-10-17T10:24:13.305Z,100936.13
2022-10-17T10:25:15.479Z,100929.66
2022-10-17T10:26:21.073Z,100939.28
2022-10-17T10:27:22.694Z,100936.50
2022-10-17T10:28:28.364Z,100936.97
2022-10-17T10:29:31.251Z,100924.69
2022-10-17T10:30:36.163Z,100939.38
2022-10-17T10:31:40.610Z,100937.47
2022-10-17T10:32:42.327Z,100946.28
2022-10-17T10:33:46.967Z,100937.66
2022-10-17T10:34:54.004Z,100936.53
2022-10-17T10:35:56.564Z,100945.59
2022-10-17T10:37:16.266Z,100941.78
2022-10-17T10:38:18.607Z,100939.09
2022-10-17T10:39:38.352Z,100940.84
2022-10-17T10:40:46.970Z,100940.06
2022-10-17T10:41:48.414Z,100942.09
2022-10-17T10:42:50.455Z,100942.41
2022-10-17T10:43:51.918Z,100946.19
2022-10-17T10:44:54.193Z,100948.09
2022-10-17T10:45:55.611Z,100941.81
2022-10-17T10:47:07.365Z,100939.56
2022-10-17T10:48:14.638Z,100946.81
2022-10-17T10:49:29.597Z,100951.59
2022-10-17T10:50:33.906Z,100951.34
2022-10-17T10:51:37.147Z,100945.97
2022-10-17T10:52:42.798Z,100949.31
2022-10-17T10:53:45.800Z,100949.13
2022-10-17T10:54:51.526Z,100948.81
2022-10-17T10:56:00.540Z,100951.06
2022-10-17T10:57:03.495Z,100948.28
2022-10-17T10:58:08.501Z,100955.34
2022-10-17T10:59:11.527Z,100948.47
2022-10-17T11:00:15.508Z,100951.06
2022-10-17T11:01:37.580Z,100956.53
2022-10-17T11:02:57.614Z,100946.28
2022-10-17T11:04:02.235Z,100955.13
2022-10-17T11:05:04.976Z,100950.50
2022-10-17T11:06:11.358Z,100948.09
2022-10-17T11:07:12.793Z,100950.97
2022-10-17T11:08:34.887Z,100951.94
2022-10-17T11:09:45.483Z,100942.41
2022-10-17T11:10:52.119Z,100954.53
2022-10-17T11:11:59.400Z,100939.31
2022-10-17T11:13:05.187Z,100940.06
2022-10-17T11:14:19.831Z,100941.84
2022-10-17T11:15:44.534Z,100948.50
2022-10-17T11:16:57.994Z,100947.09
2022-10-17T11:18:08.669Z,100948.03
2022-10-17T11:19:28.717Z,100958.03
2022-10-17T11:20:36.655Z,100954.19
2022-10-17T11:21:44.004Z,100948.00
2022-10-17T11:22:47.186Z,100951.84
2022-10-17T11:23:53.212Z,100955.56
2022-10-17T11:24:57.205Z,100945.81
2022-10-17T11:25:59.142Z,100958.22
2022-10-17T11:27:04.183Z,100954.25
2022-10-17T11:28:25.963Z,100946.88
2022-10-17T11:29:28.623Z,100949.50
2022-10-17T11:30:32.936Z,100955.44
2022-10-17T11:31:35.579Z,100949.25
2022-10-17T11:32:41.380Z,100944.97
2022-10-17T11:33:49.855Z,100941.16
2022-10-17T11:35:17.616Z,100956.91
2022-10-17T11:36:22.532Z,100956.44
2022-10-17T11:37:26.512Z,100953.91
2022-10-17T11:38:37.115Z,100945.47
2022-10-17T11:39:55.007Z,100936.50
2022-10-17T11:40:57.428Z,100947.69
2022-10-17T11:42:18.755Z,100958.78
2022-10-17T11:43:20.188Z,100952.13
2022-10-17T11:44:51.178Z,100952.97
2022-10-17T11:45:53.318Z,100955.94
2022-10-17T11:46:55.720Z,100954.72
2022-10-17T11:47:59.948Z,100955.22
2022-10-17T11:49:10.561Z,100958.56
2022-10-17T11:52:09.658Z,100955.66
2022-10-17T11:53:17.811Z,100949.56
2022-10-17T11:54:26.634Z,100952.91
2022-10-17T11:55:28.960Z,100957.34
2022-10-17T11:56:51.607Z,100951.50
2022-10-17T11:57:55.855Z,100949.84
2022-10-17T11:58:57.356Z,100956.06
2022-10-17T12:00:03.015Z,100953.78
2022-10-17T12:01:09.031Z,100955.47
2022-10-17T12:02:36.834Z,100960.25
2022-10-17T12:03:41.477Z,100951.66
2022-10-17T12:04:49.873Z,100955.94
2022-10-17T12:06:05.029Z,100953.78
2022-10-17T12:07:10.782Z,100954.88
2022-10-17T12:08:26.983Z,100950.06
2022-10-17T12:09:30.673Z,100941.94
2022-10-17T12:10:38.199Z,100943.97
2022-10-17T12:11:54.092Z,100949.72
2022-10-17T12:12:55.699Z,100948.97
2022-10-17T12:13:57.463Z,100940.63
2022-10-17T12:15:14.042Z,100957.53
2022-10-17T12:16:21.255Z,100953.22
2022-10-17T12:17:30.681Z,100959.16
2022-10-17T12:18:35.108Z,100946.38
2022-10-17T12:19:36.835Z,100954.81
2022-10-17T12:20:38.401Z,100957.78
2022-10-17T12:21:58.089Z,100949.78
2022-10-17T12:23:02.014Z,100954.03
2022-10-17T12:24:03.562Z,100948.84
2022-10-17T12:25:05.115Z,100948.13
2022-10-17T12:26:09.768Z,100952.84
2022-10-17T12:27:30.437Z,100949.16
2022-10-17T12:28:33.914Z,100945.06
2022-10-17T12:29:35.495Z,100949.59
2022-10-17T12:30:37.144Z,100957.13
2022-10-17T12:31:38.963Z,100947.69
2022-10-17T12:33:06.043Z,100958.41
2022-10-17T12:34:15.310Z,100956.97